TRA8M EHGG-EKCH
Flight info
| Callsign | TRA8M |
|---|---|
| Flight time | 0h 48m |
| Altitude | 35000 |
| Route | DOBAK DCT SUQIF M105 RIBSO DCT PIBUL P605 GESKA Z711 MONAK |
| Aircraft | A320/M-SDE3FGHIRWY/LB1 |
Departure
| Time | 2026-05-04 21:32 |
|---|---|
| Airport | Groningen Airport Eelde (EHGG) |
Arrival
| Time | 2026-05-04 22:20 |
|---|---|
| Airport | Copenhagen Kastrup Airport (EKCH) |
| Time | Latitude | Longitude | Altitude | Speed | Heading |
|---|---|---|---|---|---|
| 2026-05-04 21:00 | 53.12773 | 6.58503 | 19 ft | 0 kts | 319° |
| 2026-05-04 21:14 | 53.12757 | 6.58529 | 22 ft | 3 kts | 308° |
| 2026-05-04 21:14 | 53.12743 | 6.58566 | 19 ft | 4 kts | 287° |
| 2026-05-04 21:14 | 53.12740 | 6.58609 | 19 ft | 3 kts | 258° |
| 2026-05-04 21:15 | 53.12741 | 6.58617 | 19 ft | 0 kts | 256° |
| 2026-05-04 21:26 | 53.12739 | 6.58605 | 19 ft | 9 kts | 251° |
| 2026-05-04 21:27 | 53.12657 | 6.58414 | 20 ft | 24 kts | 232° |
| 2026-05-04 21:27 | 53.12548 | 6.58183 | 20 ft | 27 kts | 232° |
| 2026-05-04 21:27 | 53.12431 | 6.57932 | 20 ft | 29 kts | 232° |
| 2026-05-04 21:27 | 53.12249 | 6.57815 | 23 ft | 30 kts | 189° |
| 2026-05-04 21:28 | 53.12081 | 6.57648 | 24 ft | 31 kts | 233° |
| 2026-05-04 21:28 | 53.11940 | 6.57366 | 22 ft | 33 kts | 232° |
| 2026-05-04 21:28 | 53.11793 | 6.57056 | 23 ft | 35 kts | 231° |
| 2026-05-04 21:28 | 53.11622 | 6.56794 | 23 ft | 31 kts | 178° |
| 2026-05-04 21:29 | 53.11472 | 6.56870 | 24 ft | 21 kts | 217° |
| 2026-05-04 21:29 | 53.11376 | 6.56658 | 23 ft | 25 kts | 232° |
| 2026-05-04 21:29 | 53.11264 | 6.56410 | 22 ft | 28 kts | 232° |
| 2026-05-04 21:29 | 53.11182 | 6.56108 | 24 ft | 27 kts | 262° |
| 2026-05-04 21:30 | 53.11129 | 6.56075 | 28 ft | 8 kts | 160° |
| 2026-05-04 21:30 | 53.11135 | 6.56162 | 26 ft | 2 kts | 52° |
| 2026-05-04 21:31 | 53.11184 | 6.56258 | 27 ft | 37 kts | 50° |
| 2026-05-04 21:31 | 53.11507 | 6.56932 | 26 ft | 107 kts | 52° |
| 2026-05-04 21:31 | 53.12085 | 6.58151 | 42 ft | 156 kts | 47° |
| 2026-05-04 21:32 | 53.12771 | 6.59622 | 596 ft | 163 kts | 51° |
| 2026-05-04 21:32 | 53.13471 | 6.61077 | 1386 ft | 159 kts | 50° |
| 2026-05-04 21:32 | 53.14191 | 6.62569 | 1867 ft | 174 kts | 50° |
| 2026-05-04 21:32 | 53.14997 | 6.64195 | 2215 ft | 197 kts | 47° |
| 2026-05-04 21:33 | 53.15942 | 6.66036 | 2597 ft | 222 kts | 53° |
| 2026-05-04 21:33 | 53.16575 | 6.68522 | 3062 ft | 248 kts | 78° |
| 2026-05-04 21:33 | 53.16879 | 6.71459 | 3746 ft | 264 kts | 81° |
| 2026-05-04 21:33 | 53.17164 | 6.74524 | 4623 ft | 273 kts | 82° |
| 2026-05-04 21:34 | 53.17447 | 6.77706 | 5501 ft | 281 kts | 82° |
| 2026-05-04 21:34 | 53.17733 | 6.80947 | 6332 ft | 283 kts | 82° |
| 2026-05-04 21:34 | 53.18021 | 6.84210 | 7257 ft | 287 kts | 82° |
| 2026-05-04 21:34 | 53.18309 | 6.87482 | 8153 ft | 291 kts | 82° |
| 2026-05-04 21:35 | 53.18606 | 6.90839 | 9050 ft | 295 kts | 82° |
| 2026-05-04 21:35 | 53.18910 | 6.94259 | 9931 ft | 300 kts | 82° |
| 2026-05-04 21:35 | 53.19221 | 6.97774 | 10437 ft | 318 kts | 82° |
| 2026-05-04 21:35 | 53.19557 | 7.01543 | 10787 ft | 337 kts | 82° |
| 2026-05-04 21:36 | 53.19906 | 7.05442 | 11460 ft | 344 kts | 82° |
| 2026-05-04 21:36 | 53.20260 | 7.09421 | 12219 ft | 348 kts | 82° |
| 2026-05-04 21:36 | 53.20613 | 7.13429 | 12992 ft | 352 kts | 82° |
| 2026-05-04 21:36 | 53.20969 | 7.17487 | 13762 ft | 356 kts | 82° |
| 2026-05-04 21:37 | 53.21304 | 7.21544 | 14420 ft | 360 kts | 85° |
| 2026-05-04 21:37 | 53.21386 | 7.25735 | 15089 ft | 363 kts | 90° |
| 2026-05-04 21:37 | 53.21430 | 7.29975 | 15745 ft | 367 kts | 89° |
| 2026-05-04 21:37 | 53.21474 | 7.34239 | 16412 ft | 371 kts | 89° |
| 2026-05-04 21:38 | 53.21524 | 7.38568 | 17070 ft | 375 kts | 88° |
| 2026-05-04 21:38 | 53.21996 | 7.42856 | 17712 ft | 379 kts | 70° |
| 2026-05-04 21:38 | 53.23147 | 7.46828 | 18358 ft | 382 kts | 61° |
| 2026-05-04 21:38 | 53.24410 | 7.50756 | 18937 ft | 386 kts | 61° |
| 2026-05-04 21:39 | 53.25678 | 7.54669 | 19514 ft | 390 kts | 61° |
| 2026-05-04 21:39 | 53.26978 | 7.58677 | 20109 ft | 395 kts | 61° |
| 2026-05-04 21:39 | 53.28289 | 7.62734 | 20674 ft | 399 kts | 61° |
| 2026-05-04 21:39 | 53.29607 | 7.66830 | 21227 ft | 403 kts | 61° |
| 2026-05-04 21:40 | 53.30938 | 7.70983 | 21780 ft | 407 kts | 61° |
| 2026-05-04 21:40 | 53.32276 | 7.75179 | 22342 ft | 410 kts | 62° |
| 2026-05-04 21:40 | 53.33622 | 7.79412 | 22921 ft | 414 kts | 63° |
| 2026-05-04 21:40 | 53.34977 | 7.83685 | 23492 ft | 418 kts | 63° |
| 2026-05-04 21:41 | 53.36346 | 7.88000 | 23975 ft | 422 kts | 63° |
| 2026-05-04 21:41 | 53.37709 | 7.92302 | 24424 ft | 426 kts | 63° |
| 2026-05-04 21:41 | 53.39099 | 7.96704 | 24862 ft | 429 kts | 63° |
| 2026-05-04 21:41 | 53.40500 | 8.01148 | 25297 ft | 433 kts | 63° |
| 2026-05-04 21:42 | 53.41915 | 8.05635 | 25722 ft | 437 kts | 63° |
| 2026-05-04 21:42 | 53.43337 | 8.10158 | 26145 ft | 441 kts | 63° |
| 2026-05-04 21:42 | 53.44768 | 8.14722 | 26564 ft | 444 kts | 63° |
| 2026-05-04 21:42 | 53.46214 | 8.19340 | 26979 ft | 448 kts | 63° |
| 2026-05-04 21:43 | 53.47649 | 8.23931 | 27301 ft | 454 kts | 63° |
| 2026-05-04 21:43 | 53.49120 | 8.28647 | 27647 ft | 458 kts | 63° |
| 2026-05-04 21:43 | 53.50607 | 8.33409 | 28003 ft | 462 kts | 63° |
| 2026-05-04 21:43 | 53.52101 | 8.38208 | 28368 ft | 466 kts | 63° |
| 2026-05-04 21:44 | 53.53603 | 8.43052 | 28745 ft | 469 kts | 63° |
| 2026-05-04 21:44 | 53.55120 | 8.47948 | 29130 ft | 473 kts | 63° |
| 2026-05-04 21:44 | 53.56642 | 8.52864 | 29502 ft | 476 kts | 63° |
| 2026-05-04 21:44 | 53.58176 | 8.57831 | 29867 ft | 480 kts | 63° |
| 2026-05-04 21:45 | 53.59716 | 8.62826 | 30211 ft | 483 kts | 63° |
| 2026-05-04 21:45 | 53.61263 | 8.67862 | 30539 ft | 486 kts | 63° |
| 2026-05-04 21:45 | 53.62795 | 8.72863 | 30872 ft | 488 kts | 63° |
| 2026-05-04 21:45 | 53.64354 | 8.77960 | 31202 ft | 490 kts | 63° |
| 2026-05-04 21:46 | 53.65918 | 8.83080 | 31539 ft | 492 kts | 63° |
| 2026-05-04 21:46 | 53.67486 | 8.88228 | 31866 ft | 494 kts | 62° |
| 2026-05-04 21:46 | 53.69055 | 8.93390 | 32265 ft | 494 kts | 62° |
| 2026-05-04 21:46 | 53.70617 | 8.98542 | 32734 ft | 493 kts | 62° |
| 2026-05-04 21:47 | 53.72174 | 9.03686 | 33205 ft | 492 kts | 62° |
| 2026-05-04 21:47 | 53.73727 | 9.08826 | 33685 ft | 490 kts | 62° |
| 2026-05-04 21:47 | 53.75271 | 9.13942 | 34158 ft | 488 kts | 62° |
| 2026-05-04 21:47 | 53.76808 | 9.19050 | 34574 ft | 486 kts | 62° |
| 2026-05-04 21:48 | 53.78336 | 9.24138 | 34910 ft | 486 kts | 62° |
| 2026-05-04 21:48 | 53.81334 | 9.34189 | 35011 ft | 476 kts | 63° |
| 2026-05-04 21:49 | 53.84181 | 9.44260 | 35010 ft | 473 kts | 64° |
| 2026-05-04 21:49 | 53.86901 | 9.54407 | 35028 ft | 473 kts | 64° |
| 2026-05-04 21:50 | 53.89613 | 9.64560 | 35009 ft | 472 kts | 64° |
| 2026-05-04 21:50 | 53.92326 | 9.74605 | 35010 ft | 472 kts | 64° |
| 2026-05-04 21:51 | 53.95068 | 9.84734 | 35010 ft | 472 kts | 64° |
| 2026-05-04 21:51 | 53.97799 | 9.94869 | 35018 ft | 472 kts | 64° |
| 2026-05-04 21:52 | 54.00513 | 10.05027 | 35014 ft | 472 kts | 64° |
| 2026-05-04 21:52 | 54.03195 | 10.15135 | 35013 ft | 472 kts | 65° |
| 2026-05-04 21:53 | 54.05887 | 10.25321 | 35014 ft | 472 kts | 65° |
| 2026-05-04 21:53 | 54.08575 | 10.35525 | 35026 ft | 472 kts | 65° |
| 2026-05-04 21:54 | 54.11253 | 10.45735 | 35022 ft | 472 kts | 65° |
| 2026-05-04 21:54 | 54.13905 | 10.55882 | 35014 ft | 472 kts | 65° |
| 2026-05-04 21:55 | 54.16567 | 10.66106 | 34899 ft | 473 kts | 65° |
| 2026-05-04 21:55 | 54.17892 | 10.71233 | 34658 ft | 472 kts | 65° |
| 2026-05-04 21:55 | 54.19215 | 10.76360 | 34414 ft | 471 kts | 65° |
| 2026-05-04 21:55 | 54.20533 | 10.81466 | 34174 ft | 470 kts | 64° |
| 2026-05-04 21:56 | 54.21846 | 10.86565 | 33929 ft | 469 kts | 65° |
| 2026-05-04 21:56 | 54.23155 | 10.91662 | 33642 ft | 467 kts | 65° |
| 2026-05-04 21:56 | 54.24458 | 10.96748 | 33366 ft | 466 kts | 65° |
| 2026-05-04 21:56 | 54.25753 | 11.01816 | 33123 ft | 465 kts | 65° |
| 2026-05-04 21:57 | 54.27026 | 11.06812 | 32849 ft | 464 kts | 65° |
| 2026-05-04 21:57 | 54.28308 | 11.11868 | 32586 ft | 463 kts | 65° |
| 2026-05-04 21:57 | 54.29582 | 11.16906 | 32317 ft | 461 kts | 65° |
| 2026-05-04 21:57 | 54.30854 | 11.21939 | 31950 ft | 459 kts | 65° |
| 2026-05-04 21:58 | 54.32123 | 11.26957 | 31409 ft | 459 kts | 65° |
| 2026-05-04 21:58 | 54.33391 | 11.31973 | 30891 ft | 458 kts | 65° |
| 2026-05-04 21:58 | 54.34654 | 11.36987 | 30379 ft | 458 kts | 65° |
| 2026-05-04 21:58 | 54.35923 | 11.41999 | 29832 ft | 458 kts | 63° |
| 2026-05-04 21:59 | 54.37465 | 11.46648 | 29389 ft | 452 kts | 52° |
| 2026-05-04 21:59 | 54.39422 | 11.50815 | 28937 ft | 446 kts | 44° |
| 2026-05-04 21:59 | 54.41506 | 11.54732 | 28504 ft | 442 kts | 44° |
| 2026-05-04 21:59 | 54.43569 | 11.58625 | 28071 ft | 439 kts | 44° |
| 2026-05-04 22:00 | 54.45612 | 11.62497 | 27671 ft | 437 kts | 44° |
| 2026-05-04 22:00 | 54.47650 | 11.66369 | 27220 ft | 435 kts | 44° |
| 2026-05-04 22:00 | 54.49675 | 11.70219 | 26799 ft | 433 kts | 44° |
| 2026-05-04 22:00 | 54.51693 | 11.74056 | 26373 ft | 432 kts | 44° |
| 2026-05-04 22:01 | 54.53707 | 11.77878 | 25947 ft | 430 kts | 44° |
| 2026-05-04 22:01 | 54.55715 | 11.81695 | 25506 ft | 430 kts | 44° |
| 2026-05-04 22:01 | 54.57688 | 11.85458 | 25070 ft | 429 kts | 44° |
| 2026-05-04 22:01 | 54.59687 | 11.89285 | 24608 ft | 428 kts | 44° |
| 2026-05-04 22:02 | 54.61752 | 11.92951 | 24131 ft | 425 kts | 37° |
| 2026-05-04 22:02 | 54.64105 | 11.95976 | 23686 ft | 420 kts | 29° |
| 2026-05-04 22:02 | 54.66538 | 11.98770 | 23160 ft | 419 kts | 29° |
| 2026-05-04 22:02 | 54.68948 | 12.01544 | 22813 ft | 414 kts | 29° |
| 2026-05-04 22:03 | 54.71335 | 12.04305 | 22260 ft | 413 kts | 29° |
| 2026-05-04 22:03 | 54.73700 | 12.07048 | 21879 ft | 407 kts | 29° |
| 2026-05-04 22:03 | 54.76055 | 12.09781 | 21417 ft | 404 kts | 29° |
| 2026-05-04 22:03 | 54.78382 | 12.12487 | 20858 ft | 404 kts | 30° |
| 2026-05-04 22:04 | 54.80664 | 12.15141 | 20521 ft | 397 kts | 30° |
| 2026-05-04 22:04 | 54.82958 | 12.17811 | 20005 ft | 396 kts | 30° |
| 2026-05-04 22:04 | 54.85231 | 12.20457 | 19487 ft | 394 kts | 30° |
| 2026-05-04 22:04 | 54.87486 | 12.23089 | 19141 ft | 387 kts | 30° |
| 2026-05-04 22:05 | 54.89711 | 12.25694 | 18682 ft | 385 kts | 30° |
| 2026-05-04 22:05 | 54.91925 | 12.28288 | 18267 ft | 382 kts | 31° |
| 2026-05-04 22:05 | 54.94113 | 12.30854 | 17791 ft | 378 kts | 31° |
| 2026-05-04 22:05 | 54.96251 | 12.33365 | 17258 ft | 372 kts | 31° |
| 2026-05-04 22:06 | 54.98376 | 12.35862 | 16673 ft | 367 kts | 31° |
| 2026-05-04 22:06 | 55.00491 | 12.38345 | 16233 ft | 364 kts | 30° |
| 2026-05-04 22:06 | 55.02587 | 12.40795 | 15798 ft | 361 kts | 30° |
| 2026-05-04 22:06 | 55.04668 | 12.43221 | 15360 ft | 358 kts | 30° |
| 2026-05-04 22:07 | 55.06735 | 12.45627 | 14937 ft | 356 kts | 30° |
| 2026-05-04 22:07 | 55.08786 | 12.48013 | 14517 ft | 354 kts | 30° |
| 2026-05-04 22:07 | 55.10830 | 12.50394 | 14078 ft | 352 kts | 30° |
| 2026-05-04 22:07 | 55.12855 | 12.52761 | 13645 ft | 350 kts | 30° |
| 2026-05-04 22:08 | 55.14869 | 12.55122 | 13210 ft | 347 kts | 30° |
| 2026-05-04 22:08 | 55.16839 | 12.57440 | 12791 ft | 344 kts | 30° |
| 2026-05-04 22:08 | 55.18816 | 12.59773 | 12380 ft | 341 kts | 30° |
| 2026-05-04 22:08 | 55.20761 | 12.62074 | 12164 ft | 332 kts | 30° |
| 2026-05-04 22:09 | 55.22660 | 12.64270 | 11960 ft | 322 kts | 25° |
| 2026-05-04 22:09 | 55.24682 | 12.65816 | 11628 ft | 314 kts | 13° |
| 2026-05-04 22:09 | 55.26755 | 12.66977 | 11268 ft | 312 kts | 13° |
| 2026-05-04 22:09 | 55.28815 | 12.68141 | 10918 ft | 310 kts | 13° |
| 2026-05-04 22:10 | 55.30858 | 12.69304 | 10570 ft | 308 kts | 13° |
| 2026-05-04 22:10 | 55.32893 | 12.70464 | 10230 ft | 306 kts | 13° |
| 2026-05-04 22:10 | 55.34883 | 12.71597 | 9895 ft | 304 kts | 14° |
| 2026-05-04 22:10 | 55.36894 | 12.72744 | 9525 ft | 303 kts | 14° |
| 2026-05-04 22:11 | 55.38887 | 12.73887 | 9159 ft | 301 kts | 14° |
| 2026-05-04 22:11 | 55.40869 | 12.75026 | 8800 ft | 299 kts | 14° |
| 2026-05-04 22:11 | 55.42838 | 12.76154 | 8442 ft | 297 kts | 14° |
| 2026-05-04 22:11 | 55.44800 | 12.77276 | 8089 ft | 295 kts | 14° |
| 2026-05-04 22:12 | 55.46746 | 12.78393 | 7742 ft | 294 kts | 14° |
| 2026-05-04 22:12 | 55.48684 | 12.79508 | 7398 ft | 292 kts | 14° |
| 2026-05-04 22:12 | 55.50579 | 12.80599 | 7069 ft | 290 kts | 14° |
| 2026-05-04 22:12 | 55.52493 | 12.81699 | 6730 ft | 289 kts | 14° |
| 2026-05-04 22:13 | 55.54395 | 12.82793 | 6424 ft | 286 kts | 14° |
| 2026-05-04 22:13 | 55.56283 | 12.83904 | 6072 ft | 285 kts | 16° |
| 2026-05-04 22:13 | 55.58133 | 12.85152 | 5732 ft | 284 kts | 18° |
| 2026-05-04 22:13 | 55.59949 | 12.86471 | 5434 ft | 281 kts | 19° |
| 2026-05-04 22:14 | 55.61738 | 12.87802 | 5151 ft | 277 kts | 20° |
| 2026-05-04 22:14 | 55.63465 | 12.89288 | 4819 ft | 278 kts | 27° |
| 2026-05-04 22:14 | 55.65139 | 12.91022 | 4175 ft | 277 kts | 27° |
| 2026-05-04 22:14 | 55.66726 | 12.92672 | 3990 ft | 258 kts | 27° |
| 2026-05-04 22:15 | 55.68261 | 12.94070 | 3714 ft | 240 kts | 13° |
| 2026-05-04 22:15 | 55.69850 | 12.94282 | 3513 ft | 227 kts | 347° |
| 2026-05-04 22:15 | 55.71285 | 12.93335 | 3401 ft | 214 kts | 323° |
| 2026-05-04 22:15 | 55.72358 | 12.91598 | 3197 ft | 205 kts | 304° |
| 2026-05-04 22:16 | 55.73012 | 12.89458 | 3117 ft | 194 kts | 287° |
| 2026-05-04 22:16 | 55.73255 | 12.87138 | 3029 ft | 188 kts | 271° |
| 2026-05-04 22:16 | 55.73106 | 12.84885 | 2884 ft | 183 kts | 255° |
| 2026-05-04 22:16 | 55.72598 | 12.82827 | 2709 ft | 183 kts | 239° |
| 2026-05-04 22:17 | 55.71783 | 12.81133 | 2501 ft | 183 kts | 223° |
| 2026-05-04 22:17 | 55.70860 | 12.79707 | 2276 ft | 171 kts | 224° |
| 2026-05-04 22:17 | 55.69989 | 12.78347 | 2027 ft | 163 kts | 225° |
| 2026-05-04 22:17 | 55.69161 | 12.77057 | 1799 ft | 154 kts | 225° |
| 2026-05-04 22:18 | 55.68383 | 12.75845 | 1612 ft | 142 kts | 225° |
| 2026-05-04 22:18 | 55.67652 | 12.74705 | 1417 ft | 138 kts | 225° |
| 2026-05-04 22:18 | 55.66941 | 12.73598 | 1235 ft | 135 kts | 225° |
| 2026-05-04 22:18 | 55.66237 | 12.72503 | 1047 ft | 134 kts | 225° |
| 2026-05-04 22:19 | 55.65545 | 12.71427 | 853 ft | 134 kts | 224° |
| 2026-05-04 22:19 | 55.64848 | 12.70344 | 669 ft | 133 kts | 223° |
| 2026-05-04 22:19 | 55.64152 | 12.69263 | 480 ft | 133 kts | 223° |
| 2026-05-04 22:19 | 55.63456 | 12.68179 | 305 ft | 133 kts | 224° |
| 2026-05-04 22:20 | 55.62761 | 12.67098 | 103 ft | 133 kts | 223° |
| 2026-05-04 22:20 | 55.62079 | 12.66032 | 18 ft | 122 kts | 223° |
| 2026-05-04 22:20 | 55.61517 | 12.65164 | 18 ft | 87 kts | 221° |
| 2026-05-04 22:20 | 55.61260 | 12.64685 | 22 ft | 32 kts | 249° |
| 2026-05-04 22:21 | 55.61215 | 12.64415 | 19 ft | 0 kts | 251° |
| 2026-05-04 22:21 | 55.61211 | 12.64395 | 19 ft | 4 kts | 251° |
| 2026-05-04 22:21 | 55.61198 | 12.64328 | 18 ft | 8 kts | 251° |
| 2026-05-04 22:21 | 55.61187 | 12.64196 | 16 ft | 14 kts | 285° |
| 2026-05-04 22:22 | 55.61269 | 12.64122 | 16 ft | 16 kts | 3° |
| 2026-05-04 22:22 | 55.61372 | 12.64211 | 16 ft | 18 kts | 32° |
| 2026-05-04 22:22 | 55.61486 | 12.64344 | 18 ft | 21 kts | 34° |
| 2026-05-04 22:22 | 55.61613 | 12.64499 | 21 ft | 24 kts | 34° |
| 2026-05-04 22:23 | 55.61759 | 12.64663 | 20 ft | 26 kts | 32° |
| 2026-05-04 22:23 | 55.61925 | 12.64855 | 17 ft | 31 kts | 34° |
| 2026-05-04 22:23 | 55.62103 | 12.65060 | 25 ft | 30 kts | 32° |
| 2026-05-04 22:23 | 55.62282 | 12.65185 | 22 ft | 26 kts | 353° |
| 2026-05-04 22:24 | 55.62438 | 12.65252 | 20 ft | 24 kts | 72° |
| 2026-05-04 22:24 | 55.62445 | 12.65517 | 18 ft | 20 kts | 87° |
| 2026-05-04 22:24 | 55.62449 | 12.65771 | 15 ft | 15 kts | 89° |
| 2026-05-04 22:24 | 55.62487 | 12.65846 | 15 ft | 7 kts | 8° |
| 2026-05-04 22:25 | 55.62512 | 12.65840 | 16 ft | 1 kts | 356° |
| 2026-05-04 22:25 | 55.62519 | 12.65840 | 16 ft | 0 kts | 359° |